createdAt,value
2023-06-09T00:01:11.177Z,100412.00
2023-06-09T00:03:38.634Z,100391.00
2023-06-09T00:06:06.196Z,100410.00
2023-06-09T00:08:37.086Z,100409.00
2023-06-09T00:11:04.169Z,100415.00
2023-06-09T00:13:31.109Z,100397.00
2023-06-09T00:15:58.035Z,100410.00
2023-06-09T00:18:25.650Z,100415.00
2023-06-09T00:20:52.735Z,100400.00
2023-06-09T00:23:20.297Z,100407.00
2023-06-09T00:25:47.316Z,100403.00
2023-06-09T00:28:14.186Z,100407.00
2023-06-09T00:30:41.128Z,100407.00
2023-06-09T00:33:08.183Z,100398.00
2023-06-09T00:35:35.277Z,100392.00
2023-06-09T00:38:02.314Z,100397.00
2023-06-09T00:40:29.249Z,100393.00
2023-06-09T00:42:56.695Z,100398.00
2023-06-09T00:45:23.694Z,100391.00
2023-06-09T00:47:52.354Z,100392.00
2023-06-09T00:50:21.368Z,100401.00
2023-06-09T00:52:50.029Z,100394.00
2023-06-09T00:55:19.268Z,100398.00
2023-06-09T00:57:49.020Z,100400.00
2023-06-09T01:00:17.697Z,100395.00
2023-06-09T01:02:45.045Z,100400.00
2023-06-09T01:05:14.004Z,100409.00
2023-06-09T01:07:56.814Z,100401.00
2023-06-09T01:11:03.205Z,100388.00
2023-06-09T01:13:56.877Z,100403.00
2023-06-09T01:16:34.280Z,100406.00
2023-06-09T01:19:09.773Z,100399.00
2023-06-09T01:21:44.654Z,100402.00
2023-06-09T01:24:48.591Z,100407.00
2023-06-09T01:27:19.854Z,100403.00
2023-06-09T01:29:49.967Z,100405.00
2023-06-09T01:32:18.556Z,100402.00
2023-06-09T01:34:49.258Z,100416.00
2023-06-09T01:37:16.919Z,100404.00
2023-06-09T01:39:44.938Z,100403.00
2023-06-09T01:42:11.835Z,100407.00
2023-06-09T01:44:38.922Z,100401.00
2023-06-09T01:47:06.826Z,100408.00
2023-06-09T01:49:54.536Z,100395.00
2023-06-09T01:52:34.286Z,100403.00
2023-06-09T01:55:10.773Z,100392.00
2023-06-09T01:57:53.848Z,100404.00
2023-06-09T02:00:26.012Z,100398.00
2023-06-09T02:02:57.179Z,100409.00
2023-06-09T02:05:25.094Z,100401.00
2023-06-09T02:07:54.757Z,100411.00
2023-06-09T02:10:23.660Z,100395.00
2023-06-09T02:12:50.714Z,100405.00
2023-06-09T02:15:17.734Z,100412.00
2023-06-09T02:17:44.609Z,100406.00
2023-06-09T02:22:39.624Z,100411.00
2023-06-09T02:25:07.505Z,100412.00
2023-06-09T02:27:34.564Z,100416.00
2023-06-09T02:30:01.440Z,100414.00
2023-06-09T02:32:29.454Z,100412.00
2023-06-09T02:34:57.002Z,100416.00
2023-06-09T02:37:23.905Z,100390.00
2023-06-09T02:39:50.775Z,100417.00
2023-06-09T02:42:17.651Z,100415.00
2023-06-09T02:44:44.537Z,100425.00
2023-06-09T02:47:11.397Z,100428.00
2023-06-09T02:49:38.271Z,100427.00
2023-06-09T02:52:05.500Z,100425.00
2023-06-09T02:54:32.366Z,100425.00
2023-06-09T02:57:00.720Z,100420.00
2023-06-09T02:59:27.695Z,100428.00
2023-06-09T03:01:54.565Z,100430.00
2023-06-09T03:04:22.204Z,100431.00
2023-06-09T03:06:51.439Z,100433.00
2023-06-09T03:09:18.653Z,100432.00
2023-06-09T03:11:45.769Z,100428.00
2023-06-09T03:14:13.915Z,100426.00
2023-06-09T03:16:40.856Z,100420.00
2023-06-09T03:19:08.892Z,100422.00
2023-06-09T03:21:36.699Z,100432.00
2023-06-09T03:24:05.866Z,100429.00
2023-06-09T03:26:33.197Z,100432.00
2023-06-09T03:29:00.097Z,100426.00
2023-06-09T03:31:27.060Z,100429.00
2023-06-09T03:33:53.986Z,100428.00
2023-06-09T03:36:22.613Z,100428.00
2023-06-09T03:38:49.639Z,100428.00
2023-06-09T03:41:16.579Z,100432.00
2023-06-09T03:43:43.435Z,100433.00
2023-06-09T03:46:10.719Z,100429.00
2023-06-09T03:48:37.613Z,100438.00
2023-06-09T03:51:04.518Z,100429.00
2023-06-09T03:53:31.422Z,100438.00
2023-06-09T03:56:00.139Z,100438.00
2023-06-09T03:58:28.141Z,100431.00
2023-06-09T04:00:55.234Z,100437.00
2023-06-09T04:03:22.375Z,100443.00
2023-06-09T04:05:49.640Z,100442.00
2023-06-09T04:08:16.698Z,100444.00
2023-06-09T04:10:44.189Z,100444.00
2023-06-09T04:13:12.890Z,100446.00
2023-06-09T04:15:39.775Z,100440.00
2023-06-09T04:18:09.395Z,100439.00
2023-06-09T04:20:36.975Z,100433.00
2023-06-09T04:23:03.896Z,100445.00
2023-06-09T04:25:30.993Z,100443.00
2023-06-09T04:27:57.950Z,100440.00
2023-06-09T04:30:26.897Z,100436.00
2023-06-09T04:32:54.655Z,100448.00
2023-06-09T04:35:23.350Z,100431.00
2023-06-09T04:37:51.023Z,100447.00
2023-06-09T04:40:26.752Z,100437.00
2023-06-09T04:42:57.959Z,100455.00
2023-06-09T04:45:35.630Z,100458.00
2023-06-09T04:48:03.787Z,100456.00
2023-06-09T04:50:33.781Z,100438.00
2023-06-09T04:53:05.428Z,100459.00
2023-06-09T04:55:33.240Z,100460.00
2023-06-09T04:58:00.252Z,100454.00
2023-06-09T05:00:29.084Z,100457.00
2023-06-09T05:03:00.940Z,100451.00
2023-06-09T05:05:28.059Z,100448.00
2023-06-09T05:07:55.097Z,100447.00
2023-06-09T05:10:22.496Z,100452.00
2023-06-09T05:12:50.511Z,100447.00
2023-06-09T05:15:17.677Z,100452.00
2023-06-09T05:17:44.814Z,100448.00
2023-06-09T05:20:12.357Z,100453.00
2023-06-09T05:22:39.849Z,100450.00
2023-06-09T05:25:09.617Z,100457.00
2023-06-09T05:27:37.396Z,100455.00
2023-06-09T05:30:05.442Z,100452.00
2023-06-09T05:32:33.152Z,100452.00
2023-06-09T05:35:01.498Z,100456.00
2023-06-09T05:37:28.475Z,100459.00
2023-06-09T05:39:55.331Z,100457.00
2023-06-09T05:42:22.205Z,100459.00
2023-06-09T05:44:49.120Z,100459.00
2023-06-09T05:47:16.039Z,100460.00
2023-06-09T05:49:42.919Z,100462.00
2023-06-09T05:52:09.779Z,100459.00
2023-06-09T05:54:37.694Z,100459.00
2023-06-09T05:57:05.285Z,100453.00
2023-06-09T05:59:34.424Z,100452.00
2023-06-09T06:02:02.117Z,100461.00
2023-06-09T06:04:29.392Z,100456.00
2023-06-09T06:06:56.608Z,100456.00
2023-06-09T06:09:23.762Z,100457.00
2023-06-09T06:11:50.865Z,100458.00
2023-06-09T06:14:17.836Z,100441.00
2023-06-09T06:16:44.903Z,100467.00
2023-06-09T06:19:15.298Z,100453.00
2023-06-09T06:21:43.792Z,100453.00
2023-06-09T06:24:11.151Z,100460.00
2023-06-09T06:26:38.129Z,100476.00
2023-06-09T06:29:05.081Z,100472.00
2023-06-09T06:31:32.287Z,100472.00
2023-06-09T06:33:59.681Z,100474.00
2023-06-09T06:36:28.015Z,100477.00
2023-06-09T06:38:54.907Z,100481.00
2023-06-09T06:41:21.853Z,100485.00
2023-06-09T06:43:51.220Z,100488.00
2023-06-09T06:46:19.334Z,100492.00
2023-06-09T06:48:46.712Z,100492.00
2023-06-09T06:51:14.212Z,100483.00
2023-06-09T06:53:41.195Z,100488.00
2023-06-09T06:56:08.206Z,100490.00
2023-06-09T06:58:35.285Z,100493.00
2023-06-09T07:01:03.922Z,100490.00
2023-06-09T07:03:31.149Z,100494.00
2023-06-09T07:05:58.090Z,100493.00
2023-06-09T07:08:26.175Z,100491.00
2023-06-09T07:10:53.533Z,100493.00
2023-06-09T07:13:20.445Z,100493.00
2023-06-09T07:15:47.384Z,100493.00
2023-06-09T07:18:14.469Z,100505.00
2023-06-09T07:20:41.704Z,100520.00
2023-06-09T07:23:08.687Z,100530.00
2023-06-09T07:25:35.895Z,100530.00
2023-06-09T07:28:03.451Z,100531.00
2023-06-09T07:30:30.420Z,100541.00
2023-06-09T07:32:57.377Z,100537.00
2023-06-09T07:35:24.421Z,100534.00
2023-06-09T07:37:52.011Z,100531.00
2023-06-09T07:40:21.293Z,100527.00
2023-06-09T07:42:50.169Z,100519.00
2023-06-09T07:45:18.108Z,100522.00
2023-06-09T07:47:45.098Z,100515.00
2023-06-09T07:50:12.832Z,100520.00
2023-06-09T07:52:39.897Z,100524.00
2023-06-09T07:55:12.497Z,100520.00
2023-06-09T07:57:43.226Z,100515.00
2023-06-09T08:00:12.229Z,100519.00
2023-06-09T08:02:42.757Z,100529.00
2023-06-09T08:05:11.274Z,100527.00
2023-06-09T08:07:38.664Z,100530.00
2023-06-09T08:10:07.148Z,100537.00
2023-06-09T08:12:37.227Z,100529.00
2023-06-09T08:15:04.629Z,100528.00
2023-06-09T08:17:31.834Z,100540.00
2023-06-09T08:19:58.803Z,100546.00
2023-06-09T08:22:26.194Z,100532.00
2023-06-09T08:24:53.201Z,100533.00
2023-06-09T08:27:22.154Z,100540.00
2023-06-09T08:29:50.528Z,100534.00
2023-06-09T08:32:18.017Z,100526.00
2023-06-09T08:34:44.976Z,100540.00
2023-06-09T08:37:12.560Z,100541.00
2023-06-09T08:39:41.634Z,100536.00
2023-06-09T08:42:24.434Z,100537.00
2023-06-09T08:45:01.484Z,100537.00
2023-06-09T08:47:30.487Z,100530.00
2023-06-09T08:50:03.514Z,100523.00
2023-06-09T08:52:31.337Z,100533.00
2023-06-09T08:55:00.750Z,100527.00
2023-06-09T08:57:27.749Z,100523.00
2023-06-09T08:59:55.066Z,100521.00
2023-06-09T09:02:22.120Z,100522.00
2023-06-09T09:04:50.438Z,100526.00
2023-06-09T09:07:17.540Z,100526.00
2023-06-09T09:09:44.471Z,100524.00
2023-06-09T09:12:15.845Z,100525.00
2023-06-09T09:14:44.955Z,100522.00
2023-06-09T09:17:15.198Z,100522.00
2023-06-09T09:19:49.054Z,100526.00
2023-06-09T09:22:16.446Z,100519.00
2023-06-09T09:24:47.065Z,100531.00
2023-06-09T09:27:19.784Z,100524.00
2023-06-09T09:29:47.610Z,100525.00
2023-06-09T09:32:16.819Z,100518.00
2023-06-09T09:34:46.859Z,100517.00
2023-06-09T09:37:17.719Z,100525.00
2023-06-09T09:39:52.925Z,100527.00
2023-06-09T09:42:21.544Z,100527.00
2023-06-09T09:44:52.886Z,100519.00
2023-06-09T09:47:21.398Z,100524.00
2023-06-09T09:49:55.184Z,100524.00
2023-06-09T09:52:31.586Z,100513.00
2023-06-09T09:55:09.377Z,100516.00
2023-06-09T09:57:37.829Z,100522.00
2023-06-09T10:00:13.794Z,100517.00
2023-06-09T10:02:46.074Z,100518.00
2023-06-09T10:05:17.347Z,100511.00
2023-06-09T10:07:52.915Z,100516.00
2023-06-09T10:10:21.725Z,100512.00
2023-06-09T10:12:51.868Z,100515.00
2023-06-09T10:15:21.048Z,100512.00
2023-06-09T10:17:53.588Z,100515.00
2023-06-09T10:20:22.084Z,100515.00
2023-06-09T10:22:49.329Z,100515.00
2023-06-09T10:25:16.582Z,100507.00
2023-06-09T10:27:44.011Z,100506.00
2023-06-09T10:30:13.702Z,100505.00
2023-06-09T10:32:49.214Z,100501.00
2023-06-09T10:35:26.539Z,100498.00
2023-06-09T10:37:55.026Z,100488.00
2023-06-09T10:40:53.912Z,100479.00
2023-06-09T10:44:07.990Z,100478.00
2023-06-09T10:46:47.916Z,100472.00
2023-06-09T10:49:27.513Z,100464.00
2023-06-09T10:51:55.220Z,100468.00
2023-06-09T10:54:27.205Z,100474.00
2023-06-09T10:57:27.402Z,100474.00
2023-06-09T10:59:54.521Z,100477.00
2023-06-09T11:02:22.516Z,100475.00
2023-06-09T11:04:53.310Z,100474.00
2023-06-09T11:07:22.875Z,100469.00
2023-06-09T11:09:52.293Z,100471.00
2023-06-09T11:12:40.471Z,100460.00
2023-06-09T11:15:09.041Z,100455.00
2023-06-09T11:17:47.358Z,100458.00
2023-06-09T11:20:22.802Z,100459.00
2023-06-09T11:22:49.678Z,100459.00
2023-06-09T11:25:16.583Z,100453.00
2023-06-09T11:27:45.167Z,100450.00
2023-06-09T11:30:21.183Z,100438.00
2023-06-09T11:33:08.282Z,100443.00
2023-06-09T11:35:42.054Z,100439.00
2023-06-09T11:38:11.594Z,100442.00
2023-06-09T11:40:50.928Z,100443.00
2023-06-09T11:43:20.536Z,100448.00
2023-06-09T11:45:51.242Z,100438.00
2023-06-09T11:48:18.678Z,100435.00
2023-06-09T11:50:47.993Z,100440.00
2023-06-09T11:53:17.915Z,100451.00
2023-06-09T11:55:57.236Z,100420.00
2023-06-09T11:58:24.342Z,100444.00
2023-06-09T12:00:51.425Z,100446.00
2023-06-09T12:03:20.234Z,100437.00
2023-06-09T12:05:52.021Z,100438.00
2023-06-09T12:08:22.941Z,100436.00
2023-06-09T12:10:49.928Z,100433.00
2023-06-09T12:13:17.810Z,100433.00
2023-06-09T12:15:52.480Z,100433.00
2023-06-09T12:18:19.582Z,100436.00
2023-06-09T12:20:48.051Z,100432.00
2023-06-09T12:23:16.978Z,100444.00
2023-06-09T12:25:52.889Z,100438.00
2023-06-09T12:28:27.455Z,100437.00
2023-06-09T12:31:07.774Z,100440.00
2023-06-09T12:33:37.547Z,100440.00
2023-06-09T12:36:11.031Z,100443.00
2023-06-09T12:38:46.952Z,100443.00
2023-06-09T12:41:17.176Z,100436.00
2023-06-09T12:43:57.263Z,100446.00
2023-06-09T12:46:37.717Z,100449.00
2023-06-09T12:49:10.014Z,100447.00
2023-06-09T12:51:44.298Z,100452.00
2023-06-09T12:54:13.672Z,100452.00
2023-06-09T12:56:41.429Z,100452.00
2023-06-09T12:59:09.904Z,100464.00
2023-06-09T13:01:37.084Z,100467.00
2023-06-09T13:04:04.740Z,100462.00
2023-06-09T13:06:34.262Z,100465.00
2023-06-09T13:09:02.022Z,100463.00
2023-06-09T13:11:29.174Z,100460.00
2023-06-09T13:13:56.784Z,100459.00
2023-06-09T13:16:23.735Z,100466.00
2023-06-09T13:18:51.083Z,100460.00
2023-06-09T13:21:38.913Z,100463.00
2023-06-09T13:24:06.361Z,100460.00
2023-06-09T13:26:33.429Z,100464.00
2023-06-09T13:29:00.371Z,100469.00
2023-06-09T13:31:27.415Z,100474.00
2023-06-09T13:33:54.371Z,100472.00
2023-06-09T13:36:21.329Z,100477.00
2023-06-09T13:38:48.271Z,100463.00
2023-06-09T13:41:16.218Z,100468.00
2023-06-09T13:43:43.322Z,100467.00
2023-06-09T13:46:10.510Z,100467.00
2023-06-09T13:48:37.597Z,100468.00
2023-06-09T13:51:04.745Z,100473.00
2023-06-09T13:53:31.679Z,100472.00
2023-06-09T13:55:59.732Z,100467.00
2023-06-09T13:58:27.306Z,100479.00
2023-06-09T14:00:54.352Z,100496.00
2023-06-09T14:03:23.615Z,100481.00
2023-06-09T14:05:51.154Z,100489.00
2023-06-09T14:08:18.128Z,100488.00
2023-06-09T14:10:45.476Z,100490.00
2023-06-09T14:13:12.396Z,100492.00
2023-06-09T14:15:39.373Z,100490.00
2023-06-09T14:18:06.961Z,100487.00
2023-06-09T14:20:34.039Z,100494.00
2023-06-09T14:23:04.037Z,100487.00
2023-06-09T14:25:31.191Z,100487.00
2023-06-09T14:27:58.208Z,100490.00
2023-06-09T14:30:27.023Z,100485.00
2023-06-09T14:32:54.124Z,100494.00
2023-06-09T14:35:25.295Z,100508.00
2023-06-09T14:37:57.445Z,100499.00
2023-06-09T14:40:27.184Z,100510.00
2023-06-09T14:42:54.133Z,100512.00
2023-06-09T14:45:23.904Z,100514.00
2023-06-09T14:48:03.414Z,100516.00
2023-06-09T14:50:37.640Z,100507.00
2023-06-09T14:53:05.566Z,100515.00
2023-06-09T14:55:39.857Z,100511.00
2023-06-09T14:58:09.574Z,100510.00
2023-06-09T15:00:39.420Z,100502.00
2023-06-09T15:03:13.751Z,100504.00
2023-06-09T15:05:40.789Z,100488.00
2023-06-09T15:08:08.486Z,100489.00
2023-06-09T15:10:44.727Z,100498.00
2023-06-09T15:13:14.149Z,100498.00
2023-06-09T15:15:41.312Z,100506.00
2023-06-09T15:18:10.561Z,100520.00
2023-06-09T15:20:42.229Z,100506.00
2023-06-09T15:23:11.849Z,100515.00
2023-06-09T15:25:41.417Z,100516.00
2023-06-09T15:28:17.128Z,100508.00
2023-06-09T15:30:47.409Z,100485.00
2023-06-09T15:33:15.204Z,100511.00
2023-06-09T15:35:55.649Z,100512.00
2023-06-09T15:38:25.662Z,100514.00
2023-06-09T15:40:54.729Z,100524.00
2023-06-09T15:43:24.560Z,100529.00
2023-06-09T15:45:54.309Z,100523.00
2023-06-09T15:48:23.970Z,100519.00
2023-06-09T15:50:51.854Z,100521.00
2023-06-09T15:53:21.777Z,100529.00
2023-06-09T15:55:51.208Z,100524.00
2023-06-09T15:58:18.897Z,100525.00
2023-06-09T16:00:46.717Z,100533.00
2023-06-09T16:03:14.004Z,100525.00
2023-06-09T16:05:43.108Z,100512.00
2023-06-09T16:08:13.507Z,100523.00
2023-06-09T16:10:42.819Z,100527.00
2023-06-09T16:13:10.525Z,100525.00
2023-06-09T16:15:41.692Z,100512.00
2023-06-09T16:18:12.823Z,100520.00
2023-06-09T16:20:44.003Z,100532.00
2023-06-09T16:23:12.420Z,100529.00
2023-06-09T16:25:40.034Z,100519.00
2023-06-09T16:28:07.832Z,100527.00
2023-06-09T16:30:39.258Z,100530.00
2023-06-09T16:33:08.374Z,100533.00
2023-06-09T16:35:36.111Z,100531.00
2023-06-09T16:38:03.410Z,100540.00
2023-06-09T16:40:30.371Z,100535.00
2023-06-09T16:42:59.556Z,100538.00
2023-06-09T16:45:27.470Z,100541.00
2023-06-09T16:47:55.873Z,100542.00
2023-06-09T16:50:22.954Z,100540.00
2023-06-09T16:52:49.977Z,100535.00
2023-06-09T16:55:17.436Z,100523.00
2023-06-09T16:57:44.310Z,100540.00
2023-06-09T17:00:13.345Z,100527.00
2023-06-09T17:02:41.096Z,100537.00
2023-06-09T17:05:08.873Z,100534.00
2023-06-09T17:07:36.926Z,100534.00
2023-06-09T17:10:04.680Z,100534.00
2023-06-09T17:12:34.194Z,100525.00
2023-06-09T17:15:02.027Z,100538.00
2023-06-09T17:17:29.255Z,100532.00
2023-06-09T17:19:58.705Z,100532.00
2023-06-09T17:22:26.377Z,100544.00
2023-06-09T17:24:53.592Z,100537.00
2023-06-09T17:27:20.997Z,100541.00
2023-06-09T17:29:48.125Z,100545.00
2023-06-09T17:32:15.229Z,100544.00
2023-06-09T17:34:42.304Z,100541.00
2023-06-09T17:37:09.418Z,100554.00
2023-06-09T17:39:36.421Z,100552.00
2023-06-09T17:42:03.673Z,100524.00
2023-06-09T17:44:31.158Z,100548.00
2023-06-09T17:46:58.457Z,100540.00
2023-06-09T17:49:25.835Z,100543.00
2023-06-09T17:51:53.031Z,100543.00
2023-06-09T17:54:23.012Z,100542.00
2023-06-09T17:56:50.130Z,100546.00
2023-06-09T17:59:18.487Z,100537.00
2023-06-09T18:01:49.177Z,100537.00
2023-06-09T18:04:16.837Z,100540.00
2023-06-09T18:06:48.339Z,100530.00
2023-06-09T18:09:16.999Z,100554.00
2023-06-09T18:11:44.136Z,100544.00
2023-06-09T18:14:11.399Z,100552.00
2023-06-09T18:16:38.737Z,100546.00
2023-06-09T18:19:06.171Z,100547.00
2023-06-09T18:21:33.388Z,100550.00
2023-06-09T18:24:02.902Z,100549.00
2023-06-09T18:26:30.155Z,100559.00
2023-06-09T18:28:57.275Z,100551.00
2023-06-09T18:31:24.676Z,100568.00
2023-06-09T18:33:54.763Z,100561.00
2023-06-09T18:36:22.357Z,100567.00
2023-06-09T18:38:49.478Z,100572.00
2023-06-09T18:41:16.504Z,100548.00
2023-06-09T18:43:45.907Z,100577.00
2023-06-09T18:46:13.673Z,100574.00
2023-06-09T18:48:55.808Z,100580.00
2023-06-09T18:51:27.955Z,100579.00
2023-06-09T18:53:55.175Z,100580.00
2023-06-09T18:56:23.392Z,100583.00
2023-06-09T18:58:51.785Z,100578.00
2023-06-09T19:01:21.499Z,100583.00
2023-06-09T19:03:49.137Z,100590.00
2023-06-09T19:06:18.481Z,100582.00
2023-06-09T19:08:46.408Z,100574.00
2023-06-09T19:11:14.814Z,100578.00
2023-06-09T19:13:42.334Z,100591.00
2023-06-09T19:16:10.277Z,100572.00
2023-06-09T19:18:38.831Z,100583.00
2023-06-09T19:21:06.127Z,100577.00
2023-06-09T19:23:33.413Z,100586.00
2023-06-09T19:26:01.890Z,100591.00
2023-06-09T19:28:28.855Z,100594.00
2023-06-09T19:30:55.960Z,100594.00
2023-06-09T19:33:23.768Z,100588.00
2023-06-09T19:35:52.724Z,100590.00
2023-06-09T19:38:19.896Z,100588.00
2023-06-09T19:40:47.099Z,100592.00
2023-06-09T19:43:15.574Z,100594.00
2023-06-09T19:45:43.533Z,100581.00
2023-06-09T19:48:11.036Z,100591.00
2023-06-09T19:50:38.355Z,100595.00
2023-06-09T19:53:08.431Z,100597.00
2023-06-09T19:55:35.973Z,100598.00
2023-06-09T19:58:04.517Z,100587.00
2023-06-09T20:00:32.029Z,100587.00
2023-06-09T20:02:59.371Z,100593.00
2023-06-09T20:05:26.911Z,100598.00
2023-06-09T20:07:54.973Z,100598.00
2023-06-09T20:10:27.098Z,100595.00
2023-06-09T20:12:55.982Z,100597.00
2023-06-09T20:15:22.924Z,100595.00
2023-06-09T20:17:50.075Z,100602.00
2023-06-09T20:20:17.385Z,100593.00
2023-06-09T20:22:44.391Z,100593.00
2023-06-09T20:25:13.419Z,100597.00
2023-06-09T20:27:41.367Z,100578.00
2023-06-09T20:30:09.326Z,100591.00
2023-06-09T20:32:36.265Z,100604.00
2023-06-09T20:35:03.712Z,100594.00
2023-06-09T20:37:31.434Z,100599.00
2023-06-09T20:39:58.388Z,100596.00
2023-06-09T20:42:25.905Z,100601.00
2023-06-09T20:44:53.145Z,100614.00
2023-06-09T20:47:20.507Z,100601.00
2023-06-09T20:49:47.450Z,100606.00
2023-06-09T20:52:14.444Z,100601.00
2023-06-09T20:54:41.852Z,100606.00
2023-06-09T20:57:08.790Z,100582.00
2023-06-09T20:59:36.250Z,100608.00
2023-06-09T21:02:03.514Z,100605.00
2023-06-09T21:04:32.924Z,100600.00
2023-06-09T21:07:00.014Z,100606.00
2023-06-09T21:09:27.188Z,100618.00
2023-06-09T21:11:56.184Z,100604.00
2023-06-09T21:14:23.203Z,100613.00
2023-06-09T21:16:50.827Z,100610.00
2023-06-09T21:19:18.035Z,100619.00
2023-06-09T21:21:44.989Z,100623.00
2023-06-09T21:24:12.377Z,100625.00
2023-06-09T21:26:41.536Z,100630.00
2023-06-09T21:29:11.964Z,100628.00
2023-06-09T21:31:39.876Z,100619.00
2023-06-09T21:34:06.891Z,100624.00
2023-06-09T21:36:35.229Z,100631.00
2023-06-09T21:39:02.292Z,100634.00
2023-06-09T21:41:30.174Z,100630.00
2023-06-09T21:43:57.340Z,100635.00
2023-06-09T21:46:24.502Z,100626.00
2023-06-09T21:48:51.575Z,100637.00
2023-06-09T21:51:18.480Z,100626.00
2023-06-09T21:53:45.437Z,100632.00
2023-06-09T21:56:12.388Z,100631.00
2023-06-09T21:58:39.273Z,100625.00
2023-06-09T22:01:06.862Z,100631.00
2023-06-09T22:03:33.808Z,100632.00
2023-06-09T22:06:00.899Z,100625.00
2023-06-09T22:08:29.479Z,100630.00
2023-06-09T22:10:57.934Z,100632.00
2023-06-09T22:13:24.896Z,100633.00
2023-06-09T22:15:51.810Z,100634.00
2023-06-09T22:18:18.822Z,100635.00
2023-06-09T22:20:46.228Z,100638.00
2023-06-09T22:23:13.234Z,100634.00
2023-06-09T22:25:40.191Z,100639.00
2023-06-09T22:28:07.213Z,100639.00
2023-06-09T22:30:34.143Z,100636.00
2023-06-09T22:33:02.243Z,100637.00
2023-06-09T22:35:29.677Z,100645.00
2023-06-09T22:37:56.672Z,100646.00
2023-06-09T22:40:23.595Z,100649.00
2023-06-09T22:42:51.193Z,100638.00
2023-06-09T22:45:21.956Z,100640.00
2023-06-09T22:47:48.922Z,100642.00
2023-06-09T22:50:16.030Z,100639.00
2023-06-09T22:52:44.685Z,100642.00
2023-06-09T22:55:15.931Z,100644.00
2023-06-09T22:57:48.726Z,100638.00
2023-06-09T23:00:16.463Z,100638.00
2023-06-09T23:02:43.964Z,100638.00
2023-06-09T23:05:13.350Z,100644.00
2023-06-09T23:07:42.186Z,100645.00
2023-06-09T23:10:13.510Z,100621.00
2023-06-09T23:12:41.992Z,100650.00
2023-06-09T23:15:11.279Z,100642.00
2023-06-09T23:17:40.949Z,100638.00
2023-06-09T23:20:10.441Z,100639.00
2023-06-09T23:22:40.948Z,100639.00
2023-06-09T23:25:09.230Z,100641.00
2023-06-09T23:27:37.672Z,100630.00
2023-06-09T23:30:09.848Z,100627.00
2023-06-09T23:32:42.165Z,100628.00
2023-06-09T23:35:09.717Z,100629.00
2023-06-09T23:37:39.484Z,100637.00
2023-06-09T23:40:11.773Z,100637.00
2023-06-09T23:42:40.193Z,100644.00
2023-06-09T23:45:08.265Z,100637.00
2023-06-09T23:47:36.732Z,100640.00
2023-06-09T23:50:05.099Z,100648.00
2023-06-09T23:52:33.613Z,100649.00
2023-06-09T23:55:01.895Z,100648.00
2023-06-09T23:57:28.932Z,100651.00
2023-06-09T23:59:56.516Z,100654.00
